EGBJ/GLO METAR and TAF weather

Enter ICAO airport designator
Station Type Date Time Source
EGBJ METAR 2022/06/29 16:50 UTC NOAA

EGBJ 291650Z 22005KT 9999 VCSH FEW028 SCT045 16/12 Q1010


Station Type Date Time Source
EGBJ Decoded METAR 2022/06/29 16:50 UTC NOAA

Staverton Private , United Kingdom (EGBJ) 51-54N 002-10W
Jun 29, 2022 - 12:50 PM EDT / 2022.06.29 1650 UTC
Wind: from the SW (220 degrees) at 6 MPH (5 KT):0
Visibility: greater than 7 mile(s):0
Sky conditions: partly cloudy
Weather: showers in the vicinity
Temperature: 60 F (16 C)
Dew Point: 53 F (12 C)
Relative Humidity: 77%
Pressure (altimeter): 29.83 in. Hg (1010 hPa)
ob: EGBJ 291650Z 22005KT 9999 VCSH FEW028 SCT045 16/12 Q1010
cycle: 17

Station Type Date Time Source
EGBJ TAF UTC NOAA

Error!

Example: see airport list